Time;durP1;ratioP1;P1;durP2;ratioP2;P2;SDS_P1;SDS_P2;PMS_P1;PMS_P2;Temp;Humidity;BMP_temperature;BMP_pressure;BME280_temperature;BME280_humidity;BME280_pressure;Samples;Min_cycle;Max_cycle;Signal;HPM_P1;HPM_P2
2024/03/23 00:02:07;;;;;;;3.22;2.10;;;8.80;99.90;;;;;;8375923;28;20033;-85
2024/03/23 00:06:09;;;;;;;2.15;1.77;;;8.70;99.90;;;;;;8317218;28;20502;-84
2024/03/23 00:10:10;;;;;;;3.22;1.83;;;8.90;99.90;;;;;;8327862;28;20060;-84
2024/03/23 00:14:12;;;;;;;2.58;1.88;;;8.80;99.90;;;;;;8333732;28;20051;-85
2024/03/23 00:18:13;;;;;;;4.22;2.20;;;8.70;99.90;;;;;;8326727;28;20028;-84
2024/03/23 00:22:15;;;;;;;2.55;1.48;;;8.70;99.90;;;;;;8320591;28;20104;-84
2024/03/23 00:26:16;;;;;;;3.83;1.83;;;8.70;99.90;;;;;;8327007;28;20106;-84
2024/03/23 00:30:18;;;;;;;2.97;2.05;;;8.70;99.90;;;;;;8334824;28;20393;-84
2024/03/23 00:34:19;;;;;;;4.22;2.13;;;8.70;99.90;;;;;;8331841;28;20358;-84
2024/03/23 00:38:22;;;;;;;3.70;2.20;;;8.50;99.90;;;;;;8337190;28;20382;-84
2024/03/23 00:42:23;;;;;;;3.47;1.85;;;8.30;99.90;;;;;;8331041;28;20074;-85
2024/03/23 00:46:25;;;;;;;4.15;1.92;;;8.10;99.90;;;;;;8315452;28;20044;-84
2024/03/23 00:50:26;;;;;;;4.00;1.83;;;8.10;99.90;;;;;;8333489;28;20036;-84
2024/03/23 00:54:27;;;;;;;3.40;1.80;;;8.30;99.90;;;;;;8350455;28;20070;-85
2024/03/23 00:58:27;;;;;;;3.47;2.03;;;8.70;99.90;;;;;;8320197;28;20332;-84
2024/03/23 01:02:28;;;;;;;3.90;2.00;;;8.90;99.90;;;;;;8317776;28;20049;-84
2024/03/23 01:06:28;;;;;;;2.58;1.67;;;9.20;99.90;;;;;;8364680;28;20037;-84
2024/03/23 01:10:29;;;;;;;2.97;1.52;;;9.30;99.90;;;;;;8379372;28;20042;-84
2024/03/23 01:14:29;;;;;;;2.38;1.70;;;9.30;99.90;;;;;;8368884;28;20031;-84
2024/03/23 01:18:30;;;;;;;2.30;1.70;;;9.20;99.90;;;;;;8378356;28;20021;-84
2024/03/23 01:22:33;;;;;;;5.13;1.98;;;9.00;99.90;;;;;;8362998;28;20111;-85
2024/03/23 01:26:33;;;;;;;6.18;2.05;;;9.10;99.90;;;;;;8352993;28;20060;-84
2024/03/23 01:30:34;;;;;;;6.57;2.28;;;9.00;99.90;;;;;;8370715;28;20024;-84
2024/03/23 01:34:35;;;;;;;4.20;1.60;;;9.00;99.90;;;;;;8379001;28;20029;-84
2024/03/23 01:38:36;;;;;;;2.20;1.60;;;9.00;99.90;;;;;;8365733;28;20032;-85
2024/03/23 01:42:37;;;;;;;3.55;1.83;;;9.10;99.90;;;;;;8364015;28;20048;-84
2024/03/23 01:46:39;;;;;;;2.13;1.60;;;9.10;99.90;;;;;;8346030;28;20401;-85
2024/03/23 01:50:39;;;;;;;3.00;1.63;;;9.20;99.90;;;;;;8367260;28;20401;-84
2024/03/23 01:54:40;;;;;;;1.98;1.70;;;9.30;99.90;;;;;;8372400;28;20028;-84
2024/03/23 01:58:41;;;;;;;3.25;1.70;;;9.20;99.90;;;;;;8353978;28;20029;-84
2024/03/23 02:02:45;;;;;;;3.03;1.70;;;9.10;99.90;;;;;;8372567;28;20062;-84
2024/03/23 02:06:46;;;;;;;3.72;1.90;;;9.00;99.90;;;;;;8355870;28;20039;-84
2024/03/23 02:10:50;;;;;;;2.67;1.67;;;8.90;99.90;;;;;;8355542;28;20021;-85
2024/03/23 02:14:50;;;;;;;2.45;1.65;;;8.90;99.90;;;;;;8355376;28;20021;-84
2024/03/23 02:18:51;;;;;;;2.90;2.05;;;8.80;99.90;;;;;;8372790;28;20090;-85
2024/03/23 02:22:53;;;;;;;2.50;1.70;;;8.90;99.90;;;;;;8363397;28;20021;-84
2024/03/23 02:26:54;;;;;;;3.42;1.73;;;9.00;99.90;;;;;;8357312;28;20048;-85
2024/03/23 02:30:54;;;;;;;3.40;1.73;;;9.10;99.90;;;;;;8369440;28;20067;-85
2024/03/23 02:34:55;;;;;;;2.40;1.67;;;9.10;99.90;;;;;;8380782;28;20470;-84
2024/03/23 02:38:56;;;;;;;2.97;1.80;;;8.80;99.90;;;;;;8386960;28;20105;-84
2024/03/23 02:42:56;;;;;;;3.13;2.00;;;8.70;99.90;;;;;;8368214;28;20029;-84
2024/03/23 02:46:57;;;;;;;4.63;1.95;;;8.70;99.90;;;;;;8356016;28;20428;-85
2024/03/23 02:50:57;;;;;;;2.78;1.67;;;8.60;99.90;;;;;;8359231;28;20063;-85
2024/03/23 02:54:58;;;;;;;2.80;1.83;;;8.60;99.90;;;;;;8377022;28;20169;-85
2024/03/23 02:58:58;;;;;;;4.55;2.17;;;8.60;99.90;;;;;;8369513;28;20029;-85
2024/03/23 03:02:59;;;;;;;2.75;1.40;;;8.70;99.90;;;;;;8375851;28;20021;-84
2024/03/23 03:07:00;;;;;;;1.95;1.40;;;8.90;99.90;;;;;;8372406;28;20017;-85
2024/03/23 03:11:00;;;;;;;4.20;1.50;;;9.20;99.90;;;;;;8367123;28;20029;-85
2024/03/23 03:15:01;;;;;;;2.40;1.48;;;9.50;99.90;;;;;;8372351;28;20021;-85
2024/03/23 03:19:01;;;;;;;2.83;1.48;;;9.70;99.90;;;;;;8372926;28;20400;-84
2024/03/23 03:23:02;;;;;;;2.45;1.65;;;9.90;99.90;;;;;;8370160;28;20034;-84
2024/03/23 03:27:03;;;;;;;2.17;1.35;;;10.00;99.90;;;;;;8383280;28;20078;-84
2024/03/23 03:31:04;;;;;;;4.45;1.95;;;10.20;99.90;;;;;;8392887;28;20040;-84
2024/03/23 03:35:04;;;;;;;3.17;1.95;;;10.40;99.90;;;;;;8408750;28;20028;-85
2024/03/23 03:39:06;;;;;;;2.50;1.60;;;10.50;99.90;;;;;;8362772;28;20029;-84
2024/03/23 03:43:06;;;;;;;4.95;1.65;;;10.50;99.90;;;;;;8384923;28;20513;-85
2024/03/23 03:47:07;;;;;;;4.50;1.50;;;10.40;99.90;;;;;;8353386;28;20071;-85
2024/03/23 03:51:07;;;;;;;1.80;1.48;;;10.50;99.90;;;;;;8355904;28;20028;-85
2024/03/23 03:55:13;;;;;;;2.22;1.65;;;10.40;99.90;;;;;;8350900;28;20052;-85
2024/03/23 03:59:14;;;;;;;2.63;1.70;;;10.20;99.90;;;;;;8364176;28;20021;-85
2024/03/23 04:03:15;;;;;;;1.90;1.42;;;10.40;99.90;;;;;;8350090;28;20516;-85
2024/03/23 04:07:17;;;;;;;2.28;1.52;;;10.40;99.90;;;;;;8353747;28;20048;-85
2024/03/23 04:11:17;;;;;;;2.03;1.55;;;10.30;99.90;;;;;;8354619;28;20017;-86
2024/03/23 04:15:18;;;;;;;2.20;1.80;;;10.50;99.90;;;;;;8366414;28;20020;-83
2024/03/23 04:19:19;;;;;;;2.47;1.52;;;10.50;99.90;;;;;;8348116;28;20024;-85
2024/03/23 04:23:21;;;;;;;3.92;1.75;;;10.50;99.90;;;;;;8358442;28;20077;-85
2024/03/23 04:27:21;;;;;;;4.22;1.77;;;10.30;99.90;;;;;;8375700;28;20027;-85
2024/03/23 04:31:22;;;;;;;3.25;1.70;;;10.20;99.90;;;;;;8368355;28;20024;-85
2024/03/23 04:35:25;;;;;;;3.33;1.63;;;10.30;99.90;;;;;;8364486;28;20066;-85
2024/03/23 04:39:25;;;;;;;5.10;1.88;;;10.30;99.90;;;;;;8362388;28;20029;-85
2024/03/23 04:43:26;;;;;;;2.88;1.58;;;10.30;99.90;;;;;;8360393;28;20158;-85
2024/03/23 04:47:27;;;;;;;2.10;1.40;;;10.30;99.90;;;;;;8368174;28;20100;-85
2024/03/23 04:51:34;;;;;;;2.05;1.42;;;10.20;99.90;;;;;;8388812;28;20500;-85
2024/03/23 04:55:35;;;;;;;2.10;1.38;;;10.30;99.90;;;;;;8354884;28;20017;-86
2024/03/23 04:59:36;;;;;;;2.25;1.48;;;10.40;99.90;;;;;;8364921;28;20032;-84
2024/03/23 05:03:36;;;;;;;2.08;1.38;;;10.60;99.90;;;;;;8370440;28;20024;-85
2024/03/23 05:07:37;;;;;;;1.98;1.48;;;10.50;99.90;;;;;;8369067;28;20017;-85
2024/03/23 05:11:38;;;;;;;3.75;1.50;;;10.50;99.90;;;;;;8364153;28;20063;-86
2024/03/23 05:15:39;;;;;;;2.30;1.42;;;10.60;99.90;;;;;;8358689;28;20104;-85
2024/03/23 05:19:39;;;;;;;2.42;1.52;;;10.60;99.90;;;;;;8366291;28;20496;-87
2024/03/23 05:23:40;;;;;;;2.38;1.50;;;10.50;99.90;;;;;;8351417;28;20029;-85
2024/03/23 05:27:40;;;;;;;2.45;1.63;;;10.50;99.90;;;;;;8369605;28;20664;-85
2024/03/23 05:31:41;;;;;;;2.33;1.38;;;10.60;99.90;;;;;;8355359;28;20063;-86
2024/03/23 05:35:42;;;;;;;3.42;1.73;;;10.50;99.90;;;;;;8374134;28;20031;-85
2024/03/23 05:39:42;;;;;;;3.58;1.60;;;10.50;99.90;;;;;;8380791;28;20043;-85
2024/03/23 05:43:43;;;;;;;1.80;1.48;;;10.80;99.90;;;;;;8358873;28;20032;-86
2024/03/23 05:47:44;;;;;;;3.00;1.67;;;11.00;99.90;;;;;;8375335;28;20017;-85
2024/03/23 05:51:45;;;;;;;1.83;1.30;;;11.30;99.90;;;;;;8382406;28;20021;-85
2024/03/23 05:55:47;;;;;;;3.33;1.55;;;11.40;99.90;;;;;;8369735;28;20128;-85
2024/03/23 05:59:48;;;;;;;2.03;1.50;;;11.40;99.90;;;;;;8376877;28;20375;-85
2024/03/23 06:03:48;;;;;;;2.53;1.33;;;11.40;99.90;;;;;;8354930;28;20025;-86
2024/03/23 06:07:49;;;;;;;2.80;1.50;;;11.20;99.90;;;;;;8378228;28;20370;-84
2024/03/23 06:11:50;;;;;;;3.05;1.70;;;11.10;99.90;;;;;;8364512;28;20086;-84
2024/03/23 06:15:50;;;;;;;3.40;2.10;;;11.20;99.90;;;;;;8367494;28;20053;-84
2024/03/23 06:19:51;;;;;;;2.60;1.50;;;10.80;99.90;;;;;;8368899;28;20020;-85
2024/03/23 06:23:52;;;;;;;2.85;1.15;;;10.40;99.90;;;;;;8376964;28;20055;-84
2024/03/23 06:27:53;;;;;;;2.78;2.00;;;10.10;99.90;;;;;;8357924;28;20055;-86
2024/03/23 06:31:54;;;;;;;3.28;1.50;;;10.00;99.90;;;;;;8365731;28;20029;-84
2024/03/23 06:35:55;;;;;;;2.80;1.75;;;10.00;99.90;;;;;;8376418;28;20017;-83
2024/03/23 06:39:55;;;;;;;2.53;1.70;;;9.90;99.90;;;;;;8363195;28;20021;-84
2024/03/23 06:43:56;;;;;;;3.22;2.00;;;9.80;99.90;;;;;;8376371;28;20064;-84
2024/03/23 06:47:57;;;;;;;3.40;1.70;;;9.80;99.90;;;;;;8349350;28;20382;-83
2024/03/23 06:51:58;;;;;;;2.75;1.67;;;9.80;99.90;;;;;;8371612;28;20013;-85
2024/03/23 06:55:59;;;;;;;2.28;1.70;;;9.70;99.90;;;;;;8373633;28;20023;-84
2024/03/23 06:59:59;;;;;;;4.40;1.55;;;9.70;99.90;;;;;;8388876;22;20048;-80
2024/03/23 07:04:00;;;;;;;2.47;2.00;;;9.70;99.90;;;;;;8384841;28;20029;-80
2024/03/23 07:08:01;;;;;;;1.27;1.08;;;9.70;99.90;;;;;;8356496;28;20485;-78
2024/03/23 07:12:01;;;;;;;1.55;1.20;;;9.80;99.90;;;;;;8382080;28;20023;-80
2024/03/23 07:16:02;;;;;;;0.98;0.73;;;9.50;99.90;;;;;;8350668;28;20017;-80
2024/03/23 07:20:03;;;;;;;1.30;1.00;;;9.30;99.90;;;;;;8376854;28;20033;-80
2024/03/23 07:24:04;;;;;;;1.10;0.90;;;9.10;99.90;;;;;;8374976;28;20393;-79
2024/03/23 07:28:05;;;;;;;2.58;1.50;;;9.00;99.90;;;;;;8371624;28;20055;-81
2024/03/23 07:32:05;;;;;;;1.17;0.57;;;8.90;99.90;;;;;;8360362;28;20110;-81
2024/03/23 07:36:06;;;;;;;0.63;0.63;;;9.00;99.90;;;;;;8388074;28;20047;-81
2024/03/23 07:40:07;;;;;;;2.47;1.45;;;8.90;99.90;;;;;;8368145;28;20029;-82
2024/03/23 07:44:08;;;;;;;1.88;1.42;;;8.80;99.90;;;;;;8393536;28;20033;-82
2024/03/23 07:48:09;;;;;;;3.55;1.60;;;8.80;99.90;;;;;;8360805;28;20065;-81
2024/03/23 07:52:09;;;;;;;2.33;1.48;;;8.90;99.90;;;;;;8396707;28;20716;-83
2024/03/23 07:56:10;;;;;;;2.88;1.77;;;9.00;99.90;;;;;;8385239;28;20027;-83
2024/03/23 08:00:13;;;;;;;2.75;1.70;;;9.30;99.90;;;;;;8385828;28;20029;-83
2024/03/23 08:04:13;;;;;;;3.67;1.95;;;9.30;99.90;;;;;;8380355;28;20029;-84
2024/03/23 08:08:14;;;;;;;3.05;1.67;;;9.30;99.90;;;;;;8383646;28;20318;-84
2024/03/23 08:12:14;;;;;;;4.05;2.05;;;9.30;99.90;;;;;;8374808;28;20493;-83
2024/03/23 08:16:15;;;;;;;1.08;0.88;;;9.30;99.90;;;;;;8365214;28;20196;-82
2024/03/23 08:20:15;;;;;;;1.40;0.98;;;9.20;99.90;;;;;;8391254;28;20592;-84
2024/03/23 08:24:16;;;;;;;0.82;0.35;;;8.60;99.90;;;;;;8363045;28;20048;-84
2024/03/23 08:28:17;;;;;;;1.23;0.80;;;8.10;99.90;;;;;;8354554;28;20037;-82
2024/03/23 08:32:17;;;;;;;0.88;0.55;;;7.90;99.90;;;;;;8353330;28;20474;-81
2024/03/23 08:36:18;;;;;;;1.17;0.45;;;7.90;99.90;;;;;;8347007;28;20063;-81
2024/03/23 08:40:18;;;;;;;5.10;0.70;;;8.10;99.90;;;;;;8367942;28;20025;-81
2024/03/23 08:44:19;;;;;;;1.55;0.52;;;8.10;99.90;;;;;;8352350;28;20041;-81
2024/03/23 08:48:20;;;;;;;0.20;0.20;;;8.10;99.90;;;;;;8364594;28;20644;-81
2024/03/23 08:52:23;;;;;;;0.30;0.28;;;8.10;99.90;;;;;;8375138;28;20028;-84
2024/03/23 08:56:23;;;;;;;1.40;0.80;;;8.10;99.90;;;;;;8362391;28;20044;-85
2024/03/23 09:00:24;;;;;;;0.47;0.40;;;8.10;99.90;;;;;;8376369;28;20025;-85
2024/03/23 09:04:24;;;;;;;0.77;0.50;;;8.30;99.90;;;;;;8376372;28;20020;-84
2024/03/23 09:08:25;;;;;;;0.30;0.30;;;8.20;99.90;;;;;;8367156;28;20025;-83
2024/03/23 09:12:26;;;;;;;0.30;0.30;;;8.20;99.90;;;;;;8362475;28;20017;-82
2024/03/23 09:16:27;;;;;;;0.20;0.20;;;8.00;99.90;;;;;;8364369;28;20212;-82
2024/03/23 09:20:27;;;;;;;0.10;0.10;;;7.80;99.90;;;;;;8345773;28;20623;-83
2024/03/23 09:24:28;;;;;;;0.40;0.25;;;7.60;99.90;;;;;;8355365;28;20024;-82
2024/03/23 09:28:28;;;;;;;0.30;0.20;;;7.40;99.90;;;;;;8366348;28;20070;-84
2024/03/23 09:32:29;;;;;;;0.35;0.20;;;7.60;99.90;;;;;;8372162;28;20502;-83
2024/03/23 09:36:31;;;;;;;0.00;0.00;;;7.70;99.90;;;;;;8367885;28;20040;-85
2024/03/23 09:40:32;;;;;;;3.22;0.25;;;7.60;99.90;;;;;;8350582;28;20017;-83
2024/03/23 09:44:35;;;;;;;2.97;0.77;;;8.00;99.90;;;;;;8369080;28;20111;-86
2024/03/23 09:48:36;;;;;;;4.25;0.93;;;8.40;99.90;;;;;;8355892;28;20054;-86
2024/03/23 09:52:36;;;;;;;1.55;0.55;;;8.80;99.90;;;;;;8365995;28;20071;-87
2024/03/23 09:56:37;;;;;;;0.57;0.40;;;8.90;99.90;;;;;;8364558;28;20728;-87
2024/03/23 10:00:38;;;;;;;1.35;0.68;;;8.90;99.90;;;;;;8345356;28;20036;-87
2024/03/23 10:04:42;;;;;;;1.00;0.70;;;8.70;99.90;;;;;;8343174;28;20066;-86
2024/03/23 10:08:43;;;;;;;1.55;0.43;;;8.80;99.90;;;;;;8346482;28;20116;-86
2024/03/23 10:12:50;;;;;;;1.13;0.60;;;9.20;99.90;;;;;;8360485;28;20397;-87
2024/03/23 10:16:51;;;;;;;0.73;0.57;;;10.00;99.90;;;;;;8344674;28;20067;-87
2024/03/23 10:21:07;;;;;;;0.80;0.32;;;10.40;99.90;;;;;;8366635;28;20032;-86
2024/03/23 10:25:11;;;;;;;1.70;0.65;;;10.10;99.90;;;;;;8352781;28;20098;-86
2024/03/23 10:29:12;;;;;;;1.67;0.88;;;9.90;99.90;;;;;;8367335;28;20445;-86
2024/03/23 10:33:14;;;;;;;1.85;0.90;;;9.70;99.90;;;;;;8362859;28;20028;-85
2024/03/23 10:37:15;;;;;;;2.75;1.10;;;9.70;99.90;;;;;;8363009;28;20553;-87
2024/03/23 10:41:16;;;;;;;1.23;0.85;;;10.10;99.90;;;;;;8364956;28;20108;-86
2024/03/23 10:45:17;;;;;;;2.15;0.57;;;10.30;99.90;;;;;;8349821;28;20029;-86
2024/03/23 10:49:17;;;;;;;1.20;0.80;;;10.40;99.90;;;;;;8364169;28;20124;-86
2024/03/23 10:53:28;;;;;;;3.28;0.98;;;10.60;99.90;;;;;;8346409;28;20585;-86
2024/03/23 10:57:42;;;;;;;1.73;0.80;;;10.50;99.90;;;;;;8367648;28;20044;-86
2024/03/23 11:02:08;;;;;;;1.95;0.80;;;9.60;99.90;;;;;;8377115;28;20033;-86
2024/03/23 11:06:08;;;;;;;3.30;0.80;;;9.00;99.90;;;;;;8387483;28;20063;-87
2024/03/23 11:10:25;;;;;;;1.38;0.82;;;8.40;99.90;;;;;;8370751;28;20386;-87
2024/03/23 11:14:38;;;;;;;0.95;0.47;;;10.00;99.90;;;;;;8367932;28;20036;-86
2024/03/23 11:18:44;;;;;;;1.73;0.88;;;11.00;99.90;;;;;;8367450;28;20025;-87
2024/03/23 11:22:48;;;;;;;1.77;0.80;;;11.60;99.90;;;;;;8349830;28;20037;-86
2024/03/23 11:26:52;;;;;;;1.58;0.65;;;11.50;99.90;;;;;;8373813;28;20037;-87
2024/03/23 11:31:22;;;;;;;1.38;0.70;;;11.10;99.90;;;;;;8355678;28;20025;-88
2024/03/23 11:35:53;;;;;;;2.20;0.93;;;11.30;99.90;;;;;;8349868;28;20037;-86
2024/03/23 11:40:28;;;;;;;1.98;1.40;;;12.40;99.90;;;;;;8348877;28;20202;-88
2024/03/23 11:49:40;;;;;;;1.63;1.10;;;12.60;99.90;;;;;;8364748;28;20465;-87
2024/03/23 11:54:31;;;;;;;5.97;1.35;;;11.50;99.90;;;;;;8379799;28;20044;-87
2024/03/23 11:59:11;;;;;;;1.33;0.80;;;12.30;99.90;;;;;;8372157;28;20024;-87
2024/03/23 12:03:33;;;;;;;3.05;1.20;;;14.50;99.90;;;;;;8371234;28;20175;-87
2024/03/23 13:00:30;;;;;;;1.08;0.60;;;9.00;99.90;;;;;;8261818;28;20119;-84
2024/03/23 13:05:25;;;;;;;1.33;0.80;;;8.40;99.90;;;;;;8291770;28;20025;-85
2024/03/23 13:14:40;;;;;;;0.20;0.20;;;9.00;99.90;;;;;;8145896;28;20526;-86
2024/03/23 13:18:40;;;;;;;0.28;0.28;;;7.90;99.90;;;;;;8233125;28;20344;-85
2024/03/23 13:22:41;;;;;;;0.20;0.20;;;7.70;99.90;;;;;;8218012;28;20026;-86
2024/03/23 13:27:02;;;;;;;2.20;0.30;;;7.20;99.90;;;;;;8327114;28;20029;-84
2024/03/23 13:31:23;;;;;;;0.45;0.20;;;6.60;99.90;;;;;;8328704;28;20314;-83
2024/03/23 13:36:00;;;;;;;1.25;0.43;;;6.70;99.90;;;;;;8331844;28;20031;-84
2024/03/23 13:41:04;;;;;;;;;;;;;;;;;;;;;
2024/03/23 13:45:14;;;;;;;1.15;0.40;;;11.10;99.90;;;;;;8254317;28;20050;-84
2024/03/23 13:49:50;;;;;;;2.22;0.88;;;11.80;99.90;;;;;;8239448;28;20038;-84
2024/03/23 13:54:11;;;;;;;1.77;0.60;;;13.30;99.90;;;;;;8129576;29;20028;-84
2024/03/23 13:58:12;;;;;;;0.93;0.77;;;12.00;99.90;;;;;;8256608;28;20042;-85
2024/03/23 14:02:33;;;;;;;2.03;0.90;;;10.60;99.90;;;;;;8263019;28;20093;-84
2024/03/23 14:07:09;;;;;;;4.60;0.90;;;9.80;99.90;;;;;;8320302;28;20029;-84
2024/03/23 14:11:07;;;;;;;1.42;0.57;;;9.50;99.90;;;;;;8331600;28;20120;-85
2024/03/23 14:15:37;;;;;;;2.92;1.13;;;9.10;99.90;;;;;;8319461;28;20025;-85
2024/03/23 14:19:38;;;;;;;5.60;1.25;;;9.20;99.90;;;;;;8325517;28;20132;-84
2024/03/23 14:24:02;;;;;;;2.97;0.90;;;10.50;99.90;;;;;;8313045;28;20498;-85
2024/03/23 14:28:17;;;;;;;2.17;1.00;;;14.00;99.90;;;;;;8314009;28;20053;-85
2024/03/23 14:32:37;;;;;;;2.83;0.50;;;13.20;99.90;;;;;;8322446;28;20052;-86
2024/03/23 14:36:44;;;;;;;1.95;0.63;;;13.80;99.90;;;;;;8334197;28;20026;-87
2024/03/23 14:41:06;;;;;;;2.42;0.70;;;12.70;99.90;;;;;;8322303;28;20370;-87
2024/03/23 14:45:15;;;;;;;0.68;0.47;;;12.50;99.90;;;;;;8314342;28;20140;-86
2024/03/23 14:49:19;;;;;;;2.38;0.82;;;11.80;99.90;;;;;;8324230;28;20033;-87
2024/03/23 14:58:42;;;;;;;1.80;0.55;;;9.70;99.90;;;;;;8337046;28;20409;-87
2024/03/23 15:02:49;;;;;;;4.50;0.88;;;9.60;99.90;;;;;;8340216;28;20025;-87
2024/03/23 15:06:55;;;;;;;1.95;0.70;;;10.50;99.90;;;;;;8321206;28;20505;-87
2024/03/23 15:11:18;;;;;;;0.20;0.20;;;12.00;99.90;;;;;;8320677;28;20055;-87
2024/03/23 15:15:27;;;;;;;1.45;0.50;;;12.10;99.90;;;;;;8333123;28;20128;-87
2024/03/23 15:19:29;;;;;;;1.20;0.60;;;10.70;99.90;;;;;;8325567;28;20021;-86
2024/03/23 15:23:36;;;;;;;2.08;0.70;;;9.90;99.90;;;;;;8325561;28;20017;-87
2024/03/23 15:27:49;;;;;;;1.80;0.60;;;9.50;99.90;;;;;;8322060;28;20025;-87
2024/03/23 15:32:03;;;;;;;0.85;0.60;;;9.10;99.90;;;;;;8328929;28;20021;-88
2024/03/23 15:36:12;;;;;;;1.85;0.63;;;9.00;99.90;;;;;;8338848;28;20053;-87
2024/03/23 15:40:21;;;;;;;1.73;0.55;;;8.90;99.90;;;;;;8335437;28;20061;-87
2024/03/23 15:44:29;;;;;;;0.73;0.50;;;8.70;99.90;;;;;;8330357;28;20056;-87
2024/03/23 15:48:31;;;;;;;1.45;0.30;;;8.40;99.90;;;;;;8339310;28;20334;-86
2024/03/23 15:52:32;;;;;;;1.98;0.77;;;8.40;99.90;;;;;;8320838;28;20021;-87
2024/03/23 15:56:33;;;;;;;0.38;0.30;;;8.90;99.90;;;;;;8316772;28;20631;-87
2024/03/23 16:00:46;;;;;;;0.80;0.35;;;9.80;99.90;;;;;;8310493;28;20444;-87
2024/03/23 16:05:02;;;;;;;3.10;0.50;;;11.30;99.90;;;;;;8315529;28;20027;-87
2024/03/23 16:09:03;;;;;;;0.75;0.25;;;9.70;99.90;;;;;;8337765;28;20029;-87
2024/03/23 16:13:13;;;;;;;0.10;0.10;;;9.10;99.90;;;;;;8343780;28;20025;-87
2024/03/23 16:17:14;;;;;;;0.45;0.30;;;8.40;99.90;;;;;;8313705;28;20041;-86
2024/03/23 16:21:16;;;;;;;0.10;0.10;;;8.00;99.90;;;;;;8314665;28;20128;-87
2024/03/23 16:25:23;;;;;;;1.45;0.20;;;7.60;99.90;;;;;;8331750;28;20025;-86
2024/03/23 16:29:24;;;;;;;2.22;0.50;;;7.40;99.90;;;;;;8321187;28;20035;-87
2024/03/23 16:33:26;;;;;;;0.20;0.20;;;6.90;99.90;;;;;;8334641;28;20438;-87
2024/03/23 16:37:26;;;;;;;0.73;0.40;;;7.60;99.90;;;;;;8317131;28;20110;-86
2024/03/23 16:41:43;;;;;;;0.80;0.57;;;7.40;99.90;;;;;;8333660;28;20057;-86
2024/03/23 16:46:17;;;;;;;0.75;0.20;;;6.80;99.90;;;;;;8313790;28;20029;-86
2024/03/23 16:50:17;;;;;;;2.42;0.73;;;6.50;99.90;;;;;;8322049;28;20087;-86
2024/03/23 16:54:30;;;;;;;0.15;0.15;;;6.20;99.90;;;;;;8319142;28;20044;-85
2024/03/23 16:58:32;;;;;;;0.20;0.17;;;5.70;99.90;;;;;;8304848;28;20067;-85
2024/03/23 17:02:33;;;;;;;0.28;0.20;;;5.20;99.90;;;;;;8313998;28;20041;-84
2024/03/23 17:06:34;;;;;;;2.40;0.15;;;5.00;99.90;;;;;;8316780;28;20390;-85
2024/03/23 17:10:37;;;;;;;1.27;0.35;;;5.00;99.90;;;;;;8336762;28;20021;-84
2024/03/23 17:14:40;;;;;;;0.63;0.52;;;5.00;99.90;;;;;;8313337;28;20017;-84
2024/03/23 17:18:41;;;;;;;0.50;0.40;;;5.00;99.90;;;;;;8328811;28;20182;-84
2024/03/23 17:22:42;;;;;;;1.35;0.50;;;5.00;99.90;;;;;;8312488;28;20501;-84
2024/03/23 17:26:51;;;;;;;0.75;0.43;;;4.90;99.90;;;;;;8337420;28;20031;-84
2024/03/23 17:30:55;;;;;;;0.20;0.20;;;5.00;99.90;;;;;;8314868;28;20030;-84
2024/03/23 17:35:01;;;;;;;1.15;0.70;;;4.60;99.90;;;;;;8312786;28;20112;-84
2024/03/23 17:39:03;;;;;;;0.15;0.15;;;4.50;99.90;;;;;;8311804;28;20075;-82
2024/03/23 17:43:41;;;;;;;0.10;0.10;;;4.50;99.90;;;;;;8329196;28;20074;-83
2024/03/23 17:47:42;;;;;;;0.30;0.30;;;4.20;99.90;;;;;;8325831;28;20029;-84
2024/03/23 17:51:46;;;;;;;0.10;0.10;;;4.20;99.90;;;;;;8314592;28;20490;-87
2024/03/23 17:55:46;;;;;;;0.10;0.10;;;4.20;99.90;;;;;;8314110;28;20029;-84
2024/03/23 17:59:48;;;;;;;0.20;0.20;;;4.10;99.90;;;;;;8311274;28;20453;-84
2024/03/23 18:04:16;;;;;;;0.55;0.20;;;4.10;99.90;;;;;;8315846;28;20049;-85
2024/03/23 18:08:41;;;;;;;0.20;0.20;;;4.10;99.90;;;;;;8328430;28;20039;-85
2024/03/23 18:13:08;;;;;;;2.85;0.30;;;4.10;99.90;;;;;;8310421;28;20121;-84
2024/03/23 18:17:14;;;;;;;0.10;0.10;;;4.00;99.90;;;;;;8334359;28;20018;-84
2024/03/23 18:21:45;;;;;;;0.45;0.35;;;4.10;99.90;;;;;;8312666;28;20112;-86
2024/03/23 18:26:12;;;;;;;1.02;0.43;;;4.20;99.90;;;;;;8316641;28;20039;-85
2024/03/23 18:30:15;;;;;;;2.70;0.50;;;4.20;99.90;;;;;;8307700;28;20069;-86
2024/03/23 18:34:17;;;;;;;0.13;0.13;;;4.50;99.90;;;;;;8317318;28;20021;-86
2024/03/23 18:38:18;;;;;;;0.40;0.20;;;4.50;99.90;;;;;;8315181;28;20029;-85
2024/03/23 18:42:50;;;;;;;0.93;0.65;;;4.50;99.90;;;;;;8308063;28;20057;-87
2024/03/23 18:46:51;;;;;;;1.70;0.40;;;4.50;99.90;;;;;;8314493;28;20051;-87
2024/03/23 18:56:15;;;;;;;;;;;;;;;;;;;;;
2024/03/23 19:00:31;;;;;;;2.72;1.15;;;4.50;99.90;;;;;;8332341;28;20044;-87
2024/03/23 19:04:41;;;;;;;2.05;0.85;;;4.40;99.90;;;;;;8331188;28;20030;-87
2024/03/23 19:08:53;;;;;;;6.82;2.42;;;4.30;99.90;;;;;;8311113;28;20752;-88
2024/03/23 19:13:05;;;;;;;1.17;0.45;;;4.20;99.90;;;;;;8314168;28;20036;-88
2024/03/23 19:17:06;;;;;;;0.50;0.43;;;4.50;99.90;;;;;;8332533;28;20037;-86
2024/03/23 19:21:07;;;;;;;0.28;0.10;;;4.10;99.90;;;;;;8319938;28;20041;-86
2024/03/23 19:25:11;;;;;;;0.10;0.10;;;4.20;99.90;;;;;;8334008;28;20096;-87
2024/03/23 19:29:21;;;;;;;0.15;0.15;;;4.20;99.90;;;;;;8319393;28;20524;-86
2024/03/23 19:33:35;;;;;;;0.17;0.17;;;4.20;99.90;;;;;;8334456;28;20579;-87
2024/03/23 19:37:42;;;;;;;0.50;0.35;;;4.20;99.90;;;;;;8334786;28;20087;-87
2024/03/23 19:41:44;;;;;;;0.15;0.13;;;4.20;99.90;;;;;;8310615;28;20148;-88
2024/03/23 19:45:55;;;;;;;0.20;0.20;;;4.30;99.90;;;;;;8315992;28;20105;-88
2024/03/23 19:50:15;;;;;;;0.10;0.10;;;4.10;99.90;;;;;;8316673;28;20021;-88
2024/03/23 19:54:16;;;;;;;0.60;0.30;;;4.20;99.90;;;;;;8313573;28;20041;-87
2024/03/23 19:59:03;;;;;;;0.10;0.10;;;4.10;99.90;;;;;;8334885;28;20120;-88
2024/03/23 20:03:13;;;;;;;0.30;0.20;;;4.00;99.90;;;;;;8315134;28;20120;-87
2024/03/23 20:07:19;;;;;;;0.20;0.20;;;3.80;99.90;;;;;;8338059;28;20022;-87
2024/03/23 20:11:49;;;;;;;0.60;0.40;;;3.80;99.90;;;;;;8319734;28;20785;-87
2024/03/23 20:16:11;;;;;;;2.20;0.40;;;3.70;99.90;;;;;;8320303;28;20033;-87
2024/03/23 20:20:18;;;;;;;1.20;0.30;;;3.70;99.90;;;;;;8341373;28;20033;-87
2024/03/23 20:24:26;;;;;;;0.85;0.30;;;3.50;99.90;;;;;;8332078;28;20029;-88
2024/03/23 20:28:39;;;;;;;0.93;0.38;;;3.40;99.90;;;;;;8325795;28;20056;-86
2024/03/23 20:32:49;;;;;;;3.83;0.52;;;3.40;99.90;;;;;;8333299;28;20096;-87
2024/03/23 20:36:56;;;;;;;0.40;0.30;;;3.30;99.90;;;;;;8326473;28;20025;-87
2024/03/23 20:41:03;;;;;;;3.58;0.40;;;3.30;99.90;;;;;;8323265;28;20136;-87
2024/03/23 20:50:43;;;;;;;0.90;0.50;;;3.30;99.90;;;;;;8336230;28;20473;-87
2024/03/23 20:55:20;;;;;;;0.65;0.40;;;3.40;99.90;;;;;;8242250;28;20034;-86
2024/03/23 20:59:21;;;;;;;0.77;0.25;;;3.60;99.90;;;;;;8329305;28;20559;-87
2024/03/23 21:03:22;;;;;;;1.27;0.80;;;3.70;99.90;;;;;;8332758;28;20042;-88
2024/03/23 21:07:22;;;;;;;2.03;0.60;;;3.80;99.90;;;;;;8317883;28;20034;-88
2024/03/23 21:11:29;;;;;;;0.38;0.38;;;3.70;99.90;;;;;;8331112;28;20060;-88
2024/03/23 21:15:34;;;;;;;0.40;0.40;;;3.80;99.90;;;;;;8317936;28;20034;-87
2024/03/23 21:19:40;;;;;;;0.30;0.15;;;3.90;99.90;;;;;;8315282;28;20029;-87
2024/03/23 21:23:44;;;;;;;0.50;0.22;;;3.70;99.90;;;;;;8329292;28;20033;-88
2024/03/23 21:28:04;;;;;;;0.90;0.30;;;3.80;99.90;;;;;;8314626;28;20060;-88
2024/03/23 21:37:53;;;;;;;;;;;;;;;;;;;;;
2024/03/23 21:41:58;;;;;;;0.98;0.45;;;3.50;99.90;;;;;;8331633;28;20033;-87
2024/03/23 21:46:13;;;;;;;0.93;0.40;;;3.30;99.90;;;;;;8311728;28;20482;-87
2024/03/23 21:51:12;;;;;;;1.15;0.50;;;3.20;99.90;;;;;;8330397;28;20068;-87
2024/03/23 21:55:29;;;;;;;0.30;0.30;;;3.20;99.90;;;;;;8309063;28;20053;-88
2024/03/23 21:59:35;;;;;;;0.30;0.30;;;3.10;99.90;;;;;;8322962;28;20033;-88
2024/03/23 22:04:23;;;;;;;1.40;0.43;;;3.50;99.90;;;;;;8319950;28;20029;-87
2024/03/23 22:22:32;;;;;;;0.57;0.38;;;3.50;99.90;;;;;;8410130;22;20124;-85
2024/03/23 22:26:39;;;;;;;1.23;0.47;;;3.70;99.90;;;;;;8393839;28;20029;-86
2024/03/23 22:31:01;;;;;;;0.70;0.43;;;3.70;99.90;;;;;;8399361;28;20032;-85
2024/03/23 22:48:36;;;;;;;0.55;0.38;;;3.50;99.90;;;;;;8318966;28;20125;-85
2024/03/23 22:52:38;;;;;;;1.38;0.50;;;3.60;99.90;;;;;;8293672;28;20482;-86
2024/03/23 22:56:47;;;;;;;0.40;0.40;;;3.50;99.90;;;;;;8292065;28;20026;-85
2024/03/23 23:00:54;;;;;;;0.68;0.52;;;3.60;99.90;;;;;;8289917;28;20030;-86
2024/03/23 23:05:05;;;;;;;0.60;0.32;;;3.50;99.90;;;;;;8286631;28;20041;-86
2024/03/23 23:09:17;;;;;;;1.63;0.30;;;3.50;99.90;;;;;;8292430;28;20046;-87
2024/03/23 23:13:48;;;;;;;0.30;0.28;;;3.60;99.90;;;;;;8304688;28;20025;-86
2024/03/23 23:17:51;;;;;;;3.55;0.40;;;3.70;99.90;;;;;;8297315;28;20061;-85
2024/03/23 23:21:55;;;;;;;0.40;0.40;;;3.60;99.90;;;;;;8297707;28;20028;-86
2024/03/23 23:25:58;;;;;;;0.73;0.47;;;3.50;99.90;;;;;;8302668;28;20045;-85
2024/03/23 23:30:14;;;;;;;1.17;0.47;;;3.60;99.90;;;;;;8312354;28;20049;-87
2024/03/23 23:34:23;;;;;;;3.15;0.63;;;3.40;99.90;;;;;;8285324;28;20030;-87